Time;durP1;ratioP1;P1;durP2;ratioP2;P2;SDS_P1;SDS_P2;PMS_P1;PMS_P2;Temp;Humidity;BMP_temperature;BMP_pressure;BME280_temperature;BME280_humidity;BME280_pressure;Samples;Min_cycle;Max_cycle;Signal;HPM_P1;HPM_P2
2021/11/04 00:01:04;;;;;;;98.05;32.63;;;6.10;99.90;;;;;;5055132;28;20410;-70
2021/11/04 00:03:30;;;;;;;54.22;27.52;;;6.10;99.90;;;;;;5052565;28;20059;-70
2021/11/04 00:05:55;;;;;;;83.32;31.23;;;6.10;99.90;;;;;;5052615;28;20048;-70
2021/11/04 00:08:22;;;;;;;116.25;32.42;;;6.10;99.90;;;;;;5051755;28;20081;-70
2021/11/04 00:10:48;;;;;;;100.20;30.17;;;6.00;99.90;;;;;;5053691;28;20055;-70
2021/11/04 00:13:13;;;;;;;133.68;32.17;;;6.00;99.90;;;;;;5055783;28;20421;-70
2021/11/04 00:15:39;;;;;;;109.47;29.00;;;6.10;99.90;;;;;;5055823;28;20067;-70
2021/11/04 00:18:05;;;;;;;70.32;30.20;;;6.10;99.90;;;;;;5056253;28;20041;-70
2021/11/04 00:20:30;;;;;;;102.13;30.42;;;6.10;99.90;;;;;;5055985;28;20044;-70
2021/11/04 00:22:56;;;;;;;133.90;32.42;;;6.10;99.90;;;;;;5055169;28;20467;-70
2021/11/04 00:25:22;;;;;;;87.13;29.95;;;6.00;99.90;;;;;;5054105;28;20050;-70
2021/11/04 00:27:48;;;;;;;80.57;27.35;;;6.00;99.90;;;;;;5054362;28;20047;-70
2021/11/04 00:30:15;;;;;;;95.57;29.00;;;6.00;99.90;;;;;;5056288;28;20063;-69
2021/11/04 00:32:48;;;;;;;150.05;32.38;;;6.10;99.90;;;;;;5052966;28;20047;-69
2021/11/04 00:35:15;;;;;;;117.50;29.40;;;6.00;99.90;;;;;;5056233;28;20064;-70
2021/11/04 00:37:41;;;;;;;202.98;33.53;;;6.00;99.90;;;;;;5053690;28;20044;-70
2021/11/04 00:40:08;;;;;;;197.80;30.60;;;6.00;99.90;;;;;;5054786;28;20118;-70
2021/11/04 00:42:33;;;;;;;120.32;34.65;;;6.00;99.90;;;;;;5052006;28;20287;-70
2021/11/04 00:44:59;;;;;;;164.43;34.80;;;6.00;99.90;;;;;;5039209;28;20883;-70
2021/11/04 00:47:25;;;;;;;113.53;30.50;;;6.00;99.90;;;;;;5087373;28;20036;-70
2021/11/04 00:49:51;;;;;;;178.35;32.83;;;5.90;99.90;;;;;;5056407;28;20052;-70
2021/11/04 00:52:16;;;;;;;223.07;38.80;;;5.90;99.90;;;;;;5054097;28;20458;-69
2021/11/04 00:54:42;;;;;;;198.73;33.97;;;5.90;99.90;;;;;;5052402;28;20041;-70
2021/11/04 00:57:08;;;;;;;81.97;30.17;;;5.90;99.90;;;;;;5054901;28;20185;-70
2021/11/04 00:59:33;;;;;;;77.57;30.02;;;6.00;99.90;;;;;;5055404;28;21598;-70
2021/11/04 01:01:59;;;;;;;96.07;31.67;;;6.00;99.90;;;;;;5053798;28;20049;-70
2021/11/04 01:04:25;;;;;;;211.15;35.58;;;6.00;99.90;;;;;;5051803;28;20033;-70
2021/11/04 01:06:50;;;;;;;157.20;37.33;;;6.00;99.90;;;;;;5054953;28;20063;-70
2021/11/04 01:09:16;;;;;;;97.40;32.80;;;6.10;99.90;;;;;;5052389;28;20033;-70
2021/11/04 01:11:41;;;;;;;132.05;32.95;;;6.00;99.90;;;;;;5053171;28;20040;-70
2021/11/04 01:14:07;;;;;;;129.77;33.95;;;6.10;99.90;;;;;;5054587;28;21060;-70
2021/11/04 01:16:33;;;;;;;241.88;37.70;;;6.10;99.90;;;;;;5054458;28;20045;-70
2021/11/04 01:18:58;;;;;;;126.80;32.40;;;6.10;99.90;;;;;;5052950;28;20048;-70
2021/11/04 01:21:27;;;;;;;121.63;35.00;;;6.10;99.90;;;;;;5056797;28;20053;-70
2021/11/04 01:23:52;;;;;;;138.05;33.70;;;6.10;99.90;;;;;;5054409;28;20119;-70
2021/11/04 01:26:18;;;;;;;86.40;35.42;;;6.10;99.90;;;;;;5085822;28;20036;-70
2021/11/04 01:28:44;;;;;;;168.80;33.72;;;6.10;99.90;;;;;;5052332;28;20045;-70
2021/11/04 01:31:10;;;;;;;208.32;38.35;;;6.10;99.90;;;;;;5055537;28;20076;-70
2021/11/04 01:33:35;;;;;;;111.40;37.13;;;6.10;99.90;;;;;;5050454;28;20135;-70
2021/11/04 01:36:01;;;;;;;119.30;37.00;;;6.10;99.90;;;;;;5053954;28;20075;-70
2021/11/04 01:38:27;;;;;;;199.32;39.53;;;6.20;99.90;;;;;;5056421;28;20053;-70
2021/11/04 01:40:53;;;;;;;255.35;36.55;;;6.20;99.90;;;;;;5055548;28;20487;-70
2021/11/04 01:43:19;;;;;;;159.25;35.15;;;6.20;99.90;;;;;;5087980;27;20037;-70
2021/11/04 01:45:48;;;;;;;150.48;35.30;;;6.30;99.90;;;;;;5057231;28;20471;-69
2021/11/04 01:48:14;;;;;;;106.20;33.78;;;6.20;99.90;;;;;;5089512;27;20143;-70
2021/11/04 01:50:40;;;;;;;130.07;34.47;;;6.20;99.90;;;;;;5061066;28;20044;-70
2021/11/04 01:53:05;;;;;;;82.65;33.72;;;6.30;99.90;;;;;;5058151;28;20090;-70
2021/11/04 01:55:32;;;;;;;292.92;42.58;;;6.20;99.90;;;;;;5059384;28;20051;-70
2021/11/04 01:57:58;;;;;;;207.93;38.03;;;6.20;99.90;;;;;;5059720;28;20041;-70
2021/11/04 02:00:27;;;;;;;70.85;32.00;;;6.20;99.90;;;;;;5059269;28;20072;-70
2021/11/04 02:03:01;;;;;;;98.03;34.42;;;6.30;99.90;;;;;;5054508;28;20479;-70
2021/11/04 02:05:36;;;;;;;106.53;32.53;;;6.30;99.90;;;;;;5058220;28;20071;-70
2021/11/04 02:08:08;;;;;;;126.95;36.15;;;6.20;99.90;;;;;;5056435;28;20141;-69
2021/11/04 02:10:41;;;;;;;229.75;37.78;;;6.20;99.90;;;;;;5058040;28;20056;-70
2021/11/04 02:13:30;;;;;;;93.82;31.35;;;6.20;99.90;;;;;;5088402;27;20047;-70
2021/11/04 02:15:59;;;;;;;129.20;35.63;;;6.20;99.90;;;;;;5089412;28;20051;-69
2021/11/04 02:18:28;;;;;;;155.43;36.42;;;6.20;99.90;;;;;;5055613;28;20195;-69
2021/11/04 02:20:57;;;;;;;183.85;34.75;;;6.20;99.90;;;;;;5056955;28;20372;-70
2021/11/04 02:23:46;;;;;;;70.47;30.23;;;6.20;99.90;;;;;;5056537;28;20037;-70
2021/11/04 02:26:12;;;;;;;261.08;37.60;;;6.20;99.90;;;;;;5064661;28;20120;-70
2021/11/04 02:28:39;;;;;;;174.98;31.85;;;6.20;99.90;;;;;;5062556;28;20037;-70
2021/11/04 02:31:09;;;;;;;70.05;27.98;;;6.20;99.90;;;;;;5063734;28;20037;-70
2021/11/04 02:33:37;;;;;;;66.03;28.05;;;6.20;99.90;;;;;;5062692;28;20079;-69
2021/11/04 02:36:05;;;;;;;134.80;30.63;;;6.20;99.90;;;;;;5065880;28;20501;-70
2021/11/04 02:38:32;;;;;;;82.15;28.48;;;6.20;99.90;;;;;;5063050;28;20037;-69
2021/11/04 02:41:00;;;;;;;113.90;28.52;;;6.20;99.90;;;;;;5064905;28;20040;-70
2021/11/04 02:43:30;;;;;;;115.82;31.90;;;6.20;99.90;;;;;;5060851;28;20115;-70
2021/11/04 02:45:57;;;;;;;136.90;29.85;;;6.30;99.90;;;;;;5065957;28;20037;-70
2021/11/04 02:48:23;;;;;;;113.65;29.90;;;6.30;99.90;;;;;;5081174;28;20048;-70
2021/11/04 02:50:53;;;;;;;67.90;24.95;;;6.20;99.90;;;;;;5066225;28;20388;-70
2021/11/04 02:53:22;;;;;;;66.43;25.23;;;6.30;99.90;;;;;;5093350;27;20064;-70
2021/11/04 02:55:48;;;;;;;95.63;28.42;;;6.20;99.90;;;;;;5067905;28;20536;-70
2021/11/04 02:58:14;;;;;;;54.70;25.13;;;6.20;99.90;;;;;;5065503;28;20087;-69
2021/11/04 03:00:42;;;;;;;107.85;27.55;;;6.30;99.90;;;;;;5060505;28;20481;-69
2021/11/04 03:03:08;;;;;;;226.43;31.38;;;6.20;99.90;;;;;;5061689;28;20044;-70
2021/11/04 03:05:34;;;;;;;214.93;28.92;;;6.10;99.90;;;;;;5064953;28;20044;-69
2021/11/04 03:08:00;;;;;;;366.98;38.70;;;6.20;99.90;;;;;;5064503;28;20432;-69
2021/11/04 03:10:26;;;;;;;263.08;31.40;;;6.20;99.90;;;;;;5064949;28;20134;-69
2021/11/04 03:12:52;;;;;;;116.20;26.15;;;6.10;99.90;;;;;;5059948;28;20048;-70
2021/11/04 03:15:20;;;;;;;141.25;27.77;;;6.10;99.90;;;;;;5077559;28;20037;-70
2021/11/04 03:17:48;;;;;;;146.98;29.10;;;6.00;99.90;;;;;;5063222;28;20036;-70
2021/11/04 03:20:19;;;;;;;185.68;31.13;;;6.10;99.90;;;;;;5065092;28;20090;-69
2021/11/04 03:22:46;;;;;;;109.72;28.77;;;6.10;99.90;;;;;;5060836;28;20048;-70
2021/11/04 03:25:15;;;;;;;64.35;25.75;;;6.00;99.90;;;;;;5064416;28;20033;-70
2021/11/04 03:27:45;;;;;;;87.70;27.42;;;6.10;99.90;;;;;;5063305;28;20047;-69
2021/11/04 03:30:14;;;;;;;114.25;29.42;;;6.10;99.90;;;;;;5061890;28;20040;-69
2021/11/04 03:32:41;;;;;;;64.28;26.25;;;6.10;99.90;;;;;;5060292;28;20491;-70
2021/11/04 03:35:09;;;;;;;63.85;27.02;;;6.10;99.90;;;;;;5062178;28;20052;-69
2021/11/04 03:37:39;;;;;;;96.25;29.02;;;6.10;99.90;;;;;;5062763;28;20052;-69
2021/11/04 03:40:05;;;;;;;39.78;23.75;;;6.20;99.90;;;;;;5091927;27;20040;-69
2021/11/04 03:42:31;;;;;;;47.22;25.27;;;6.20;99.90;;;;;;5060823;28;20078;-70
2021/11/04 03:44:59;;;;;;;42.80;24.23;;;6.20;99.90;;;;;;5064023;28;20486;-70
2021/11/04 03:47:29;;;;;;;37.42;23.63;;;6.20;99.90;;;;;;5062747;28;20037;-69
2021/11/04 03:49:56;;;;;;;39.50;23.63;;;6.30;99.90;;;;;;5093555;27;20049;-69
2021/11/04 03:52:23;;;;;;;44.30;24.38;;;6.30;99.90;;;;;;5059936;28;20471;-70
2021/11/04 03:54:49;;;;;;;39.22;23.05;;;6.20;99.90;;;;;;5091965;27;20136;-70
2021/11/04 03:57:17;;;;;;;46.75;24.88;;;6.30;99.90;;;;;;5065120;28;20040;-70
2021/11/04 03:59:43;;;;;;;35.28;21.90;;;6.30;99.90;;;;;;5067745;28;20047;-69
2021/11/04 04:02:09;;;;;;;45.83;23.30;;;6.20;99.90;;;;;;5060992;28;20115;-70
2021/11/04 04:04:39;;;;;;;47.25;23.63;;;6.30;99.90;;;;;;5058800;28;20072;-70
2021/11/04 04:07:05;;;;;;;39.85;23.88;;;6.30;99.90;;;;;;5090473;28;20486;-68
2021/11/04 04:09:31;;;;;;;35.03;22.15;;;6.20;99.90;;;;;;5091405;27;20103;-70
2021/11/04 04:11:57;;;;;;;51.47;26.90;;;6.30;99.90;;;;;;5060095;28;20076;-69
2021/11/04 04:14:22;;;;;;;63.83;28.30;;;6.30;99.90;;;;;;5059676;28;20086;-69
2021/11/04 04:16:49;;;;;;;68.03;28.58;;;6.30;99.90;;;;;;5061494;28;20047;-69
2021/11/04 04:19:14;;;;;;;84.88;31.05;;;6.30;99.90;;;;;;5063673;28;20104;-69
2021/11/04 04:21:40;;;;;;;58.72;28.75;;;6.30;99.90;;;;;;5063470;28;20040;-69
2021/11/04 04:24:06;;;;;;;68.30;29.75;;;6.30;99.90;;;;;;5089973;27;20449;-70
2021/11/04 04:26:32;;;;;;;71.35;32.03;;;6.30;99.90;;;;;;5061333;28;20094;-69
2021/11/04 04:28:57;;;;;;;80.88;33.88;;;6.30;99.90;;;;;;5075188;28;20114;-69
2021/11/04 04:31:24;;;;;;;59.20;28.80;;;6.30;99.90;;;;;;5062722;28;20462;-70
2021/11/04 04:33:49;;;;;;;71.10;31.83;;;6.30;99.90;;;;;;5059652;28;20040;-70
2021/11/04 04:36:15;;;;;;;60.90;30.25;;;6.40;99.90;;;;;;5065118;28;20044;-69
2021/11/04 04:38:40;;;;;;;68.45;32.88;;;6.30;99.90;;;;;;5063289;28;20041;-69
2021/11/04 04:41:06;;;;;;;91.32;36.08;;;6.40;99.90;;;;;;5061434;28;20048;-69
2021/11/04 04:43:32;;;;;;;93.25;35.55;;;6.30;99.90;;;;;;5092237;28;20036;-69
2021/11/04 04:45:57;;;;;;;65.45;33.35;;;6.40;99.90;;;;;;5063951;28;20050;-69
2021/11/04 04:48:23;;;;;;;53.80;29.30;;;6.40;99.90;;;;;;5064506;28;20044;-69
2021/11/04 04:50:48;;;;;;;49.85;28.58;;;6.40;99.90;;;;;;5064011;28;20048;-69
2021/11/04 04:53:14;;;;;;;54.88;27.92;;;6.40;99.90;;;;;;5060801;28;20079;-70
2021/11/04 04:55:40;;;;;;;45.65;28.67;;;6.40;99.90;;;;;;5065175;28;20040;-70
2021/11/04 04:58:06;;;;;;;48.95;26.95;;;6.40;99.90;;;;;;5062666;28;20517;-70
2021/11/04 05:00:33;;;;;;;47.17;25.58;;;6.40;99.90;;;;;;5063032;28;20391;-69
2021/11/04 05:02:59;;;;;;;49.95;26.48;;;6.40;99.90;;;;;;5059582;28;20492;-70
2021/11/04 05:05:25;;;;;;;52.58;25.90;;;6.30;99.90;;;;;;5062090;28;20045;-69
2021/11/04 05:07:50;;;;;;;51.72;27.45;;;6.30;99.90;;;;;;5063154;28;20056;-69
2021/11/04 05:10:16;;;;;;;61.30;29.95;;;6.30;99.90;;;;;;5061155;28;20045;-70
2021/11/04 05:12:45;;;;;;;83.82;33.13;;;6.30;99.90;;;;;;5054547;28;20029;-69
2021/11/04 05:15:11;;;;;;;63.35;31.38;;;6.40;99.90;;;;;;5088752;28;20135;-69
2021/11/04 05:17:38;;;;;;;69.55;32.90;;;6.30;99.90;;;;;;5060548;28;20501;-69
2021/11/04 05:20:05;;;;;;;78.72;32.67;;;6.30;99.90;;;;;;5061358;28;20115;-69
2021/11/04 05:22:31;;;;;;;125.63;37.47;;;6.40;99.90;;;;;;5071052;28;20065;-70
2021/11/04 05:24:57;;;;;;;61.35;31.35;;;6.40;99.90;;;;;;5088405;27;20136;-69
2021/11/04 05:27:23;;;;;;;78.70;33.42;;;6.40;99.90;;;;;;5057312;28;20128;-69
2021/11/04 05:29:49;;;;;;;81.75;33.72;;;6.40;99.90;;;;;;5089054;27;20514;-70
2021/11/04 05:32:17;;;;;;;61.97;30.55;;;6.40;99.90;;;;;;5058147;28;20535;-70
2021/11/04 05:34:42;;;;;;;72.18;32.25;;;6.30;99.90;;;;;;5058174;28;20129;-70
2021/11/04 05:37:08;;;;;;;64.95;31.67;;;6.40;99.90;;;;;;5060196;28;20644;-69
2021/11/04 05:39:38;;;;;;;80.07;32.65;;;6.40;99.90;;;;;;5062273;28;20529;-69
2021/11/04 05:42:05;;;;;;;69.18;32.53;;;6.40;99.90;;;;;;5076507;28;20044;-70
2021/11/04 05:44:31;;;;;;;68.90;32.65;;;6.40;99.90;;;;;;5090019;27;20115;-70
2021/11/04 05:47:00;;;;;;;88.20;34.53;;;6.40;99.90;;;;;;5061906;28;20082;-70
2021/11/04 05:49:25;;;;;;;63.30;31.20;;;6.40;99.90;;;;;;5058761;28;20047;-70
2021/11/04 05:51:51;;;;;;;75.80;33.55;;;6.40;99.90;;;;;;5062580;28;20044;-70
2021/11/04 05:54:16;;;;;;;70.32;32.55;;;6.40;99.90;;;;;;5062355;28;20037;-69
2021/11/04 05:56:42;;;;;;;75.72;34.65;;;6.40;99.90;;;;;;5060754;28;20110;-69
2021/11/04 05:59:08;;;;;;;71.03;31.35;;;6.50;99.90;;;;;;5058052;28;20045;-70
2021/11/04 06:01:33;;;;;;;62.67;32.17;;;6.40;99.90;;;;;;5059710;28;20077;-70
2021/11/04 06:03:59;;;;;;;65.82;32.45;;;6.50;99.90;;;;;;5056101;28;20044;-70
2021/11/04 06:06:25;;;;;;;61.70;30.90;;;6.40;99.90;;;;;;5056902;28;20059;-70
2021/11/04 06:08:50;;;;;;;73.05;32.95;;;6.50;99.90;;;;;;5058851;28;20535;-70
2021/11/04 06:11:16;;;;;;;78.35;33.85;;;6.50;99.90;;;;;;5057678;28;20561;-69
2021/11/04 06:13:42;;;;;;;118.95;38.20;;;6.50;99.90;;;;;;5089121;28;20072;-70
2021/11/04 06:16:12;;;;;;;73.55;33.85;;;6.50;99.90;;;;;;5055974;28;20040;-69
2021/11/04 06:18:38;;;;;;;74.35;34.30;;;6.50;99.90;;;;;;5087887;28;20059;-70
2021/11/04 06:21:04;;;;;;;63.72;32.15;;;6.40;99.90;;;;;;5056891;28;20040;-69
2021/11/04 06:23:30;;;;;;;105.03;37.80;;;6.40;99.90;;;;;;5054102;28;20371;-70
2021/11/04 06:25:56;;;;;;;100.18;35.83;;;6.50;99.90;;;;;;5055647;28;20040;-70
2021/11/04 06:28:21;;;;;;;142.45;40.50;;;6.50;99.90;;;;;;5087472;28;20051;-70
2021/11/04 06:30:47;;;;;;;78.03;35.10;;;6.50;99.90;;;;;;5057020;28;20048;-70
2021/11/04 06:33:12;;;;;;;84.63;35.90;;;6.50;99.90;;;;;;5050616;28;20065;-70
2021/11/04 06:35:38;;;;;;;108.82;38.13;;;6.50;99.90;;;;;;5055287;28;21021;-70
2021/11/04 06:38:04;;;;;;;89.80;36.80;;;6.50;99.90;;;;;;5057540;28;20087;-72
2021/11/04 06:40:30;;;;;;;103.35;38.58;;;6.50;99.90;;;;;;5056737;28;20040;-72
2021/11/04 06:42:55;;;;;;;83.90;37.08;;;6.60;99.90;;;;;;5088320;28;21059;-72
2021/11/04 06:45:21;;;;;;;83.72;36.60;;;6.60;99.90;;;;;;5056077;28;20040;-70
2021/11/04 06:47:50;;;;;;;89.20;36.65;;;6.50;99.90;;;;;;5055614;28;20052;-70
2021/11/04 06:50:21;;;;;;;92.03;37.80;;;6.60;99.90;;;;;;5054248;28;20093;-70
2021/11/04 06:53:09;;;;;;;76.57;35.35;;;6.60;99.90;;;;;;5086032;28;20129;-69
2021/11/04 06:55:42;;;;;;;84.78;35.67;;;6.60;99.90;;;;;;5058298;28;20040;-70
2021/11/04 06:58:17;;;;;;;133.77;41.42;;;6.60;99.90;;;;;;5086866;28;20037;-70
2021/11/04 07:00:47;;;;;;;128.02;39.47;;;6.60;99.90;;;;;;5056177;28;20037;-70
2021/11/04 07:03:22;;;;;;;119.05;38.45;;;6.60;99.90;;;;;;5053590;28;20482;-70
2021/11/04 07:05:54;;;;;;;112.82;39.15;;;6.50;99.90;;;;;;5090308;28;20047;-69
2021/11/04 07:08:22;;;;;;;154.73;39.70;;;6.50;99.90;;;;;;5018544;28;1043106;-70
2021/11/04 07:10:48;;;;;;;139.90;41.65;;;6.50;99.90;;;;;;5054333;28;20118;-69
2021/11/04 07:13:14;;;;;;;209.27;46.65;;;6.40;99.90;;;;;;5054074;28;20124;-69
2021/11/04 07:15:42;;;;;;;163.85;40.38;;;6.50;99.90;;;;;;5057656;28;20044;-69
2021/11/04 07:18:09;;;;;;;240.68;46.75;;;6.50;99.90;;;;;;5053657;28;20078;-70
2021/11/04 07:20:39;;;;;;;185.77;39.42;;;6.50;99.90;;;;;;5053968;28;20446;-70
2021/11/04 07:23:10;;;;;;;207.27;46.25;;;6.40;99.90;;;;;;5052239;28;20047;-70
2021/11/04 07:25:41;;;;;;;258.80;44.03;;;6.40;99.90;;;;;;5051200;28;20052;-69
2021/11/04 07:28:15;;;;;;;117.07;38.75;;;6.50;99.90;;;;;;5051304;28;20045;-70
2021/11/04 07:30:42;;;;;;;104.85;40.80;;;6.50;99.90;;;;;;5054648;28;20072;-70
2021/11/04 07:33:09;;;;;;;163.85;39.28;;;6.60;99.90;;;;;;5050054;28;20049;-70
2021/11/04 07:35:36;;;;;;;224.10;44.03;;;6.60;99.90;;;;;;5051702;28;20068;-70
2021/11/04 07:38:05;;;;;;;308.23;45.03;;;6.60;99.90;;;;;;5049171;28;20045;-70
2021/11/04 07:40:31;;;;;;;115.40;41.50;;;6.60;99.90;;;;;;5083481;27;21722;-70
2021/11/04 07:42:58;;;;;;;126.10;38.90;;;6.70;99.90;;;;;;5048647;28;20091;-70
2021/11/04 07:45:27;;;;;;;80.22;37.60;;;6.70;99.90;;;;;;5047583;28;20051;-70
2021/11/04 07:47:53;;;;;;;111.45;37.83;;;6.80;99.90;;;;;;5052029;28;20051;-70
2021/11/04 07:50:25;;;;;;;88.07;37.42;;;6.80;99.90;;;;;;5054517;28;20044;-70
2021/11/04 07:52:52;;;;;;;85.03;37.35;;;6.90;99.90;;;;;;5051152;28;20090;-70
2021/11/04 07:55:18;;;;;;;75.75;34.20;;;6.90;99.90;;;;;;5086029;28;20049;-70
2021/11/04 07:57:45;;;;;;;77.95;35.67;;;6.90;99.90;;;;;;5054770;28;20090;-70
2021/11/04 08:00:21;;;;;;;74.88;34.83;;;7.00;99.90;;;;;;5049806;28;20044;-70
2021/11/04 08:02:47;;;;;;;78.70;34.95;;;7.00;99.90;;;;;;5084694;28;20048;-70
2021/11/04 08:05:17;;;;;;;134.68;38.85;;;7.10;99.90;;;;;;5049585;28;20098;-70
2021/11/04 08:07:43;;;;;;;92.88;36.25;;;7.00;99.90;;;;;;5055530;28;20093;-70
2021/11/04 08:10:14;;;;;;;176.10;36.90;;;7.00;99.90;;;;;;5050850;28;20043;-70
2021/11/04 08:12:40;;;;;;;140.35;36.95;;;7.00;99.90;;;;;;5053546;28;20025;-70
2021/11/04 08:15:08;;;;;;;121.90;35.65;;;7.00;99.90;;;;;;5053065;28;20593;-70
2021/11/04 08:17:35;;;;;;;64.75;33.28;;;6.90;99.90;;;;;;5053787;28;20040;-70
2021/11/04 08:20:01;;;;;;;111.72;35.40;;;6.90;99.90;;;;;;5053618;28;20032;-70
2021/11/04 08:22:27;;;;;;;66.10;32.75;;;7.00;99.90;;;;;;5050515;28;20039;-70
2021/11/04 08:24:53;;;;;;;119.72;34.67;;;7.00;99.90;;;;;;5084945;27;20040;-70
2021/11/04 08:27:19;;;;;;;168.45;34.83;;;7.10;99.90;;;;;;5053407;28;20044;-70
2021/11/04 08:29:45;;;;;;;106.80;33.05;;;7.00;99.90;;;;;;5053467;28;20049;-70
2021/11/04 08:32:12;;;;;;;70.93;32.45;;;7.00;99.90;;;;;;5054462;28;20052;-70
2021/11/04 08:34:41;;;;;;;154.38;35.67;;;7.00;99.90;;;;;;5053587;28;20036;-70
2021/11/04 08:37:08;;;;;;;186.95;37.33;;;7.00;99.90;;;;;;5051004;28;20106;-70
2021/11/04 08:39:35;;;;;;;80.55;29.30;;;7.10;99.90;;;;;;5053149;28;20048;-70
2021/11/04 08:42:01;;;;;;;59.83;28.90;;;7.10;99.90;;;;;;5050781;28;20110;-70
2021/11/04 08:44:27;;;;;;;123.93;27.08;;;7.00;99.90;;;;;;5053043;28;20032;-70
2021/11/04 08:46:53;;;;;;;328.25;31.15;;;7.10;99.90;;;;;;5052135;28;20041;-70
2021/11/04 08:49:19;;;;;;;319.92;31.60;;;7.10;99.90;;;;;;5067896;28;20114;-70
2021/11/04 08:51:45;;;;;;;294.52;31.63;;;7.00;99.90;;;;;;5087362;28;20075;-70
2021/11/04 08:54:11;;;;;;;204.65;24.52;;;6.80;99.90;;;;;;5089430;28;20040;-70
2021/11/04 08:56:40;;;;;;;281.73;29.52;;;6.70;99.90;;;;;;5050864;28;20049;-70
2021/11/04 08:59:06;;;;;;;177.60;26.67;;;6.70;99.90;;;;;;5053909;28;20032;-70
2021/11/04 09:01:35;;;;;;;257.20;35.05;;;6.60;99.90;;;;;;5051438;28;20278;-70
2021/11/04 09:04:02;;;;;;;170.93;28.42;;;6.60;99.90;;;;;;5081533;28;20041;-69
2021/11/04 09:06:28;;;;;;;292.33;32.00;;;6.70;99.90;;;;;;5054614;28;20110;-69
2021/11/04 09:08:54;;;;;;;275.80;30.50;;;6.70;99.90;;;;;;5051795;28;20049;-69
2021/11/04 09:11:20;;;;;;;168.98;28.35;;;6.70;99.90;;;;;;5052311;28;20056;-70
2021/11/04 09:13:45;;;;;;;355.35;34.58;;;6.70;99.90;;;;;;5050014;28;20164;-70
2021/11/04 09:16:11;;;;;;;315.83;29.88;;;6.70;99.90;;;;;;5050710;28;20216;-70
2021/11/04 09:18:37;;;;;;;342.45;28.35;;;6.80;99.90;;;;;;5049835;28;20091;-70
2021/11/04 09:21:03;;;;;;;202.95;28.98;;;6.70;99.90;;;;;;5052384;28;20490;-70
2021/11/04 09:23:29;;;;;;;98.88;26.13;;;6.70;99.90;;;;;;5050996;28;20047;-70
2021/11/04 09:25:55;;;;;;;140.68;27.00;;;6.80;99.90;;;;;;5052728;28;20029;-69
2021/11/04 09:28:21;;;;;;;102.05;23.15;;;6.90;99.90;;;;;;5051838;28;20040;-70
2021/11/04 09:30:46;;;;;;;136.52;22.77;;;6.90;99.90;;;;;;5085500;28;20040;-70
2021/11/04 09:33:14;;;;;;;95.55;21.60;;;6.90;99.90;;;;;;5049995;28;20051;-70
2021/11/04 09:35:40;;;;;;;89.60;24.35;;;6.90;99.90;;;;;;5049059;28;20037;-70
2021/11/04 09:38:07;;;;;;;293.55;34.40;;;6.90;99.90;;;;;;5052092;28;20425;-70
2021/11/04 09:40:34;;;;;;;106.32;24.05;;;6.80;99.90;;;;;;5054060;28;20033;-70
2021/11/04 09:42:59;;;;;;;49.42;23.52;;;6.90;99.90;;;;;;5051039;28;20086;-70
2021/11/04 09:45:29;;;;;;;53.60;22.00;;;6.90;99.90;;;;;;5052106;28;20376;-69
2021/11/04 09:47:55;;;;;;;37.67;19.73;;;7.10;99.90;;;;;;5052416;28;20040;-69
2021/11/04 09:50:22;;;;;;;215.63;26.85;;;7.20;99.90;;;;;;5083964;28;20150;-69
2021/11/04 09:52:54;;;;;;;78.72;20.65;;;7.10;99.90;;;;;;5046568;28;20044;-69
2021/11/04 09:55:22;;;;;;;59.63;21.23;;;7.10;99.90;;;;;;5050420;28;20041;-70
2021/11/04 09:57:57;;;;;;;66.70;19.02;;;7.20;99.90;;;;;;5051727;28;20057;-69
2021/11/04 10:00:33;;;;;;;55.58;18.25;;;7.20;99.90;;;;;;5051524;28;20045;-69
2021/11/04 10:03:03;;;;;;;;;;;7.20;99.90;;;;;;5052657;28;20052;-70
2021/11/04 10:05:29;;;;;;;128.55;22.13;;;7.30;99.90;;;;;;5052324;28;19928;-69
2021/11/04 10:07:56;;;;;;;34.97;18.13;;;7.30;99.90;;;;;;5052546;28;20679;-69
2021/11/04 10:10:22;;;;;;;39.70;17.80;;;7.40;99.90;;;;;;5055380;28;20371;-69
2021/11/04 10:12:59;;;;;;;36.53;19.10;;;7.50;99.90;;;;;;5055518;28;20048;-69
2021/11/04 10:15:26;;;;;;;32.88;17.65;;;7.60;99.90;;;;;;5057564;28;20104;-69
2021/11/04 10:17:52;;;;;;;58.78;18.98;;;7.60;99.90;;;;;;5089060;27;20543;-69
2021/11/04 10:20:23;;;;;;;34.47;15.07;;;7.60;99.90;;;;;;5057238;28;20037;-69
2021/11/04 10:23:05;;;;;;;20.98;14.95;;;7.70;99.90;;;;;;5054762;28;20063;-70
2021/11/04 10:25:32;;;;;;;19.40;13.73;;;7.70;99.90;;;;;;5069434;28;20660;-70
2021/11/04 10:27:58;;;;;;;46.28;15.95;;;7.80;99.90;;;;;;5056895;28;20080;-70
2021/11/04 10:30:37;;;;;;;25.15;14.02;;;7.70;99.90;;;;;;5055939;28;20841;-70
2021/11/04 10:33:29;;;;;;;35.42;14.75;;;7.70;99.90;;;;;;5052988;28;20091;-69
2021/11/04 10:35:56;;;;;;;46.70;16.45;;;7.70;99.90;;;;;;5056123;28;20052;-69
2021/11/04 10:38:45;;;;;;;28.33;15.32;;;7.70;99.90;;;;;;5057619;28;20094;-69
2021/11/04 10:41:26;;;;;;;28.42;16.20;;;7.70;99.90;;;;;;5054400;28;20402;-69
2021/11/04 10:43:55;;;;;;;23.45;15.38;;;7.70;99.90;;;;;;5052990;28;20032;-70
2021/11/04 10:46:22;;;;;;;20.58;14.52;;;7.80;99.90;;;;;;5054212;28;20047;-70
2021/11/04 10:48:59;;;;;;;18.65;15.18;;;7.90;99.90;;;;;;5086182;27;20044;-69
2021/11/04 10:51:26;;;;;;;18.50;14.35;;;7.90;99.90;;;;;;5088670;27;20049;-69
2021/11/04 10:54:03;;;;;;;17.30;14.77;;;8.00;99.90;;;;;;5053255;28;20391;-69
2021/11/04 10:56:31;;;;;;;18.50;15.43;;;8.00;99.90;;;;;;5054784;28;20048;-69
2021/11/04 10:59:12;;;;;;;18.25;14.57;;;8.00;99.90;;;;;;5053584;28;20767;-70
2021/11/04 11:01:43;;;;;;;18.80;14.90;;;7.90;99.90;;;;;;5086594;28;20037;-70
2021/11/04 11:04:17;;;;;;;17.10;13.98;;;7.80;99.90;;;;;;5051726;28;20033;-70
2021/11/04 11:06:45;;;;;;;19.42;15.70;;;7.90;99.90;;;;;;5055347;28;20409;-69
2021/11/04 11:09:19;;;;;;;20.30;16.23;;;7.90;99.90;;;;;;5055520;28;20053;-70
2021/11/04 11:11:48;;;;;;;17.08;14.95;;;8.00;99.90;;;;;;5054606;28;20124;-69
2021/11/04 11:14:14;;;;;;;18.35;15.25;;;8.10;99.90;;;;;;5052835;28;20044;-69
2021/11/04 11:16:57;;;;;;;17.77;14.65;;;8.20;99.90;;;;;;5055360;28;20110;-69
2021/11/04 11:19:28;;;;;;;20.52;16.23;;;8.50;99.90;;;;;;5055670;28;20037;-69
2021/11/04 11:21:55;;;;;;;18.30;15.30;;;8.70;99.90;;;;;;5053526;28;20435;-69
2021/11/04 11:24:35;;;;;;;14.60;13.00;;;8.90;99.90;;;;;;5052051;28;20037;-69
2021/11/04 11:27:04;;;;;;;16.13;13.73;;;9.10;99.90;;;;;;5055969;28;20060;-69
2021/11/04 11:29:37;;;;;;;14.68;13.13;;;9.20;99.90;;;;;;5087685;28;20143;-69
2021/11/04 11:32:05;;;;;;;13.98;12.60;;;9.50;99.90;;;;;;5056267;28;20041;-68
2021/11/04 11:34:33;;;;;;;12.95;11.65;;;9.80;99.90;;;;;;5051563;28;20048;-69
2021/11/04 11:37:10;;;;;;;14.43;12.82;;;10.00;99.90;;;;;;5041853;28;20064;-69
2021/11/04 11:39:41;;;;;;;13.68;12.25;;;10.30;99.90;;;;;;5053513;28;20040;-69
2021/11/04 11:42:12;;;;;;;14.45;12.95;;;10.50;99.90;;;;;;5057469;28;20123;-69
2021/11/04 11:44:42;;;;;;;13.95;12.48;;;10.70;99.90;;;;;;5090707;27;20525;-69
2021/11/04 11:47:10;;;;;;;13.10;11.77;;;10.80;99.90;;;;;;5059338;28;20044;-69
2021/11/04 11:49:39;;;;;;;14.52;13.05;;;10.80;99.90;;;;;;5058029;28;20483;-69
2021/11/04 11:52:30;;;;;;;15.82;13.25;;;10.90;99.90;;;;;;5057157;28;20409;-69
2021/11/04 11:55:10;;;;;;;14.10;12.63;;;10.70;99.90;;;;;;5059252;28;20040;-69
2021/11/04 11:57:37;;;;;;;14.30;12.80;;;10.60;99.90;;;;;;5056804;28;20048;-69
2021/11/04 12:00:04;;;;;;;12.75;11.45;;;10.70;99.90;;;;;;5055959;28;20497;-69
2021/11/04 12:02:54;;;;;;;14.27;12.88;;;10.70;99.90;;;;;;5053386;28;20037;-69
2021/11/04 12:05:23;;;;;;;14.48;11.98;;;10.80;99.90;;;;;;5055841;28;20055;-69
2021/11/04 12:07:53;;;;;;;12.75;11.40;;;10.80;99.90;;;;;;5057509;28;20118;-69
2021/11/04 12:10:38;;;;;;;14.93;11.80;;;10.80;99.90;;;;;;5059712;28;20177;-69
2021/11/04 12:13:04;;;;;;;15.00;12.77;;;10.80;99.90;;;;;;5057851;28;20052;-69
2021/11/04 12:15:30;;;;;;;11.82;10.73;;;10.80;99.90;;;;;;5058599;28;20282;-69
2021/11/04 12:18:19;;;;;;;12.95;11.65;;;10.70;99.90;;;;;;5040353;28;20120;-69
2021/11/04 12:20:56;;;;;;;11.77;10.57;;;10.70;99.90;;;;;;5052795;28;20807;-69
2021/11/04 12:23:32;;;;;;;14.52;12.13;;;10.60;99.90;;;;;;5051556;28;20105;-69
2021/11/04 12:25:58;;;;;;;12.23;11.00;;;10.60;99.90;;;;;;5051694;28;20543;-69
2021/11/04 12:28:24;;;;;;;13.13;11.73;;;10.50;99.90;;;;;;5054899;28;20036;-69
2021/11/04 12:30:50;;;;;;;13.10;11.73;;;10.50;99.90;;;;;;5052693;28;20037;-69
2021/11/04 12:33:16;;;;;;;13.82;11.73;;;10.40;99.90;;;;;;5048858;28;20490;-69
2021/11/04 12:35:51;;;;;;;12.43;10.90;;;10.30;99.90;;;;;;5052337;28;20063;-69
2021/11/04 12:38:29;;;;;;;11.77;10.57;;;10.40;99.90;;;;;;5051396;28;20082;-69